createdAt,value
2023-01-12T00:03:38.565Z,21.5
2023-01-12T00:08:14.126Z,21.5
2023-01-12T00:13:19.920Z,21.4
2023-01-12T00:18:27.352Z,21.4
2023-01-12T00:23:49.853Z,21.4
2023-01-12T00:28:41.475Z,21.4
2023-01-12T00:34:03.994Z,21.4
2023-01-12T00:39:26.300Z,21.3
2023-01-12T00:44:54.136Z,21.3
2023-01-12T00:50:18.565Z,21.3
2023-01-12T00:55:39.703Z,21.3
2023-01-12T01:01:01.871Z,21.3
2023-01-12T01:06:24.940Z,21.2
2023-01-12T01:11:16.690Z,21.2
2023-01-12T01:16:08.841Z,21.2
2023-01-12T01:36:04.357Z,21.1
2023-01-12T01:41:27.415Z,21.1
2023-01-12T01:46:50.053Z,21.1
2023-01-12T01:51:56.106Z,21
2023-01-12T01:57:18.985Z,21
2023-01-12T02:02:25.856Z,21
2023-01-12T02:07:52.309Z,21
2023-01-12T02:12:44.427Z,21
2023-01-12T02:18:06.926Z,20.9
2023-01-12T02:23:28.396Z,20.9
2023-01-12T02:28:51.214Z,20.9
2023-01-12T02:33:58.290Z,20.9
2023-01-12T02:39:20.070Z,20.9
2023-01-12T02:44:45.584Z,20.9
2023-01-12T02:50:06.778Z,20.9
2023-01-12T02:55:28.648Z,20.8
2023-01-12T03:00:52.055Z,20.8
2023-01-12T03:06:14.249Z,20.8
2023-01-12T03:11:36.330Z,20.8
2023-01-12T03:16:43.903Z,20.8
2023-01-12T03:22:05.739Z,20.8
2023-01-12T03:27:12.657Z,20.8
2023-01-12T03:32:35.762Z,20.8
2023-01-12T03:37:57.931Z,20.8
2023-01-12T03:43:20.693Z,20.8
2023-01-12T03:48:43.987Z,20.7
2023-01-12T03:54:05.377Z,20.7
2023-01-12T03:59:26.581Z,20.7
2023-01-12T04:04:50.614Z,20.7
2023-01-12T04:09:57.188Z,20.7
2023-01-12T04:15:04.804Z,20.6
2023-01-12T04:20:27.510Z,20.6
2023-01-12T04:25:49.420Z,20.6
2023-01-12T04:30:40.187Z,20.6
2023-01-12T04:36:03.376Z,20.6
2023-01-12T04:41:25.137Z,20.6
2023-01-12T04:46:50.066Z,20.6
2023-01-12T04:52:12.908Z,20.6
2023-01-12T04:57:35.658Z,20.6
2023-01-12T05:02:58.408Z,20.6
2023-01-12T05:08:23.937Z,20.6
2023-01-12T05:13:45.412Z,20.5
2023-01-12T05:19:08.204Z,20.5
2023-01-12T05:24:18.768Z,20.5
2023-01-12T05:29:40.466Z,20.6
2023-01-12T05:35:04.633Z,20.5
2023-01-12T05:40:12.013Z,20.5
2023-01-12T05:45:19.133Z,20.4
2023-01-12T05:50:40.177Z,20.4
2023-01-12T05:56:03.254Z,20.4
2023-01-12T06:01:10.258Z,20.4
2023-01-12T06:06:18.092Z,20.4
2023-01-12T06:11:27.136Z,20.4
2023-01-12T06:16:34.179Z,20.4
2023-01-12T06:21:57.260Z,20.4
2023-01-12T06:27:20.004Z,20.4
2023-01-12T06:32:41.928Z,20.4
2023-01-12T06:38:12.425Z,20.3
2023-01-12T06:43:35.489Z,20.3
2023-01-12T06:48:58.055Z,20.3
2023-01-12T06:54:20.100Z,20.3
2023-01-12T06:59:43.060Z,20.3
2023-01-12T07:05:05.825Z,20.3
2023-01-12T07:10:28.520Z,20.3
2023-01-12T07:15:54.426Z,20.3
2023-01-12T07:21:17.004Z,20.3
2023-01-12T07:26:42.207Z,20.3
2023-01-12T07:32:05.156Z,20.2
2023-01-12T07:37:28.998Z,20.2
2023-01-12T07:42:51.993Z,20.1
2023-01-12T07:48:15.349Z,20.2
2023-01-12T07:53:39.547Z,20.2
2023-01-12T07:59:01.805Z,20.1
2023-01-12T08:04:28.250Z,20.1
2023-01-12T08:09:50.510Z,20.1
2023-01-12T08:15:12.961Z,20.1
2023-01-12T08:20:36.388Z,20.1
2023-01-12T08:25:59.905Z,20.1
2023-01-12T08:31:22.671Z,20.1
2023-01-12T08:37:03.583Z,20.1
2023-01-12T08:42:27.941Z,20
2023-01-12T08:47:51.114Z,20
2023-01-12T08:53:17.965Z,19.9
2023-01-12T08:58:40.252Z,19.9
2023-01-12T09:03:48.605Z,19.9
2023-01-12T09:08:55.964Z,19.9
2023-01-12T09:14:19.071Z,19.9
2023-01-12T09:19:56.531Z,19.9
2023-01-12T09:25:21.805Z,19.9
2023-01-12T09:30:44.615Z,19.9
2023-01-12T09:36:17.343Z,19.8
2023-01-12T09:41:47.051Z,19.8
2023-01-12T09:46:54.413Z,19.8
2023-01-12T09:52:26.701Z,19.8
2023-01-12T09:58:01.550Z,19.8
2023-01-12T10:03:32.334Z,19.8
2023-01-12T10:09:05.943Z,19.8
2023-01-12T10:14:28.493Z,19.8
2023-01-12T10:19:54.640Z,19.8
2023-01-12T10:25:18.168Z,19.7
2023-01-12T10:30:41.174Z,19.8
2023-01-12T10:36:07.815Z,19.7
2023-01-12T10:41:30.146Z,19.7
2023-01-12T10:47:03.656Z,19.7
2023-01-12T10:52:26.127Z,19.7
2023-01-12T10:57:51.700Z,19.7
2023-01-12T11:03:16.565Z,19.6
2023-01-12T11:08:38.919Z,19.6
2023-01-12T11:14:03.772Z,19.6
2023-01-12T11:19:34.056Z,19.6
2023-01-12T11:24:56.760Z,19.6
2023-01-12T11:30:19.176Z,19.6
2023-01-12T11:35:27.552Z,19.6
2023-01-12T11:40:35.020Z,19.6
2023-01-12T11:45:41.584Z,19.6
2023-01-12T11:51:08.171Z,19.6
2023-01-12T11:56:32.835Z,19.6
2023-01-12T12:01:59.376Z,19.5
2023-01-12T12:07:22.708Z,19.6
2023-01-12T12:12:48.748Z,19.5
2023-01-12T12:17:58.348Z,19.5
2023-01-12T12:23:21.203Z,19.5
2023-01-12T12:28:45.380Z,19.5
2023-01-12T12:34:07.823Z,19.5
2023-01-12T12:39:15.358Z,19.5
2023-01-12T12:44:38.363Z,19.5
2023-01-12T12:50:00.920Z,19.5
2023-01-12T12:55:26.997Z,19.5
2023-01-12T13:00:50.494Z,19.4
2023-01-12T13:05:42.731Z,19.4
2023-01-12T13:10:34.957Z,19.4
2023-01-12T13:15:44.961Z,19.4
2023-01-12T13:21:16.066Z,19.4
2023-01-12T13:26:39.320Z,19.4
2023-01-12T13:32:04.312Z,19.4
2023-01-12T13:36:58.769Z,19.4
2023-01-12T13:42:25.401Z,19.4
2023-01-12T13:47:33.203Z,19.4
2023-01-12T13:52:56.047Z,19.4
2023-01-12T13:58:20.033Z,19.4
2023-01-12T14:03:43.678Z,19.4
2023-01-12T14:09:23.403Z,19.4
2023-01-12T14:14:46.446Z,19.4
2023-01-12T14:20:31.550Z,19.3
2023-01-12T14:25:54.147Z,19.4
2023-01-12T14:31:17.589Z,19.3
2023-01-12T14:36:40.231Z,19.4
2023-01-12T14:42:02.853Z,19.3
2023-01-12T14:47:26.314Z,19.3
2023-01-12T14:52:48.998Z,19.3
2023-01-12T14:58:11.576Z,19.3
2023-01-12T15:03:43.444Z,19.3
2023-01-12T15:09:07.013Z,19.3
2023-01-12T15:14:29.128Z,19.3
2023-01-12T15:19:51.865Z,19.2
2023-01-12T15:25:14.784Z,19.2
2023-01-12T15:30:49.352Z,19.2
2023-01-12T15:36:25.718Z,19.2
2023-01-12T15:41:48.213Z,19.2
2023-01-12T15:47:10.406Z,19.1
2023-01-12T15:52:33.423Z,19.1
2023-01-12T15:57:55.536Z,19.1
2023-01-12T16:03:03.385Z,19.1
2023-01-12T16:09:33.444Z,19.1
2023-01-12T16:14:55.969Z,19.1
2023-01-12T16:20:03.224Z,19.1
2023-01-12T16:25:26.802Z,19.1
2023-01-12T16:30:51.379Z,19.1
2023-01-12T16:36:14.241Z,19.4
2023-01-12T16:41:37.539Z,19.7
2023-01-12T16:46:31.443Z,19.9
2023-01-12T16:51:54.724Z,20.3
2023-01-12T16:57:18.106Z,20.6
2023-01-12T17:02:47.651Z,20.9
2023-01-12T17:13:15.919Z,21.3
2023-01-12T17:18:43.767Z,21.5
2023-01-12T17:23:54.081Z,21.8
2023-01-12T17:34:14.971Z,22
2023-01-12T17:39:22.377Z,22.1
2023-01-12T17:44:46.222Z,22.3
2023-01-12T17:50:13.297Z,22.5
2023-01-12T17:55:21.333Z,22.6
2023-01-12T18:00:39.612Z,22.8
2023-01-12T18:06:26.324Z,22.9
2023-01-12T18:11:49.447Z,23.1
2023-01-12T18:17:14.324Z,23.1
2023-01-12T18:22:23.085Z,23.3
2023-01-12T18:27:48.109Z,23.4
2023-01-12T18:33:11.816Z,23.6
2023-01-12T18:38:37.987Z,23.8
2023-01-12T18:44:03.032Z,23.9
2023-01-12T18:49:13.164Z,24.1
2023-01-12T18:54:40.092Z,24.1
2023-01-12T19:00:08.068Z,24.2
2023-01-12T19:05:37.842Z,24.2
2023-01-12T19:11:07.938Z,24.2
2023-01-12T19:16:37.778Z,24.3
2023-01-12T19:22:07.759Z,24.3
2023-01-12T19:27:07.057Z,24.4
2023-01-12T19:32:24.497Z,24.4
2023-01-12T19:38:07.584Z,24.4
2023-01-12T19:43:38.224Z,24.4
2023-01-12T19:49:10.170Z,24.4
2023-01-12T19:54:42.607Z,24.3
2023-01-12T19:59:57.296Z,24.2
2023-01-12T20:05:24.677Z,24.1
2023-01-12T20:10:37.503Z,23.9
2023-01-12T20:16:07.805Z,23.9
2023-01-12T20:21:39.277Z,23.8
2023-01-12T20:26:37.631Z,23.7
2023-01-12T20:32:24.105Z,23.5
2023-01-12T20:37:50.459Z,23.4
2023-01-12T20:43:17.969Z,23.4
2023-01-12T20:48:45.613Z,23.3
2023-01-12T20:54:10.220Z,23.2
2023-01-12T20:59:34.168Z,23.1
2023-01-12T21:04:33.095Z,23.1
2023-01-12T21:10:09.251Z,22.9
2023-01-12T21:15:19.682Z,22.9
2023-01-12T21:20:43.055Z,22.9
2023-01-12T21:26:06.566Z,22.8
2023-01-12T21:31:29.715Z,22.7
2023-01-12T21:36:53.813Z,22.6
2023-01-12T21:42:00.852Z,22.6
2023-01-12T21:47:08.752Z,22.5
2023-01-12T21:52:33.773Z,22.4
2023-01-12T21:57:41.451Z,22.4
2023-01-12T22:02:49.350Z,22.3
2023-01-12T22:08:12.816Z,22.3
2023-01-12T22:13:19.843Z,22.3
2023-01-12T22:18:27.753Z,22.3
2023-01-12T22:23:49.866Z,22.2
2023-01-12T22:29:12.031Z,22.1
2023-01-12T22:34:35.063Z,22.1
2023-01-12T22:39:45.677Z,22.1
2023-01-12T22:45:07.678Z,22.1
2023-01-12T22:50:23.266Z,22
2023-01-12T22:55:46.429Z,21.9
2023-01-12T23:01:08.155Z,21.9
2023-01-12T23:06:16.337Z,21.9
2023-01-12T23:11:07.644Z,21.9
2023-01-12T23:16:30.289Z,21.9
2023-01-12T23:21:52.241Z,21.8
2023-01-12T23:27:14.747Z,21.8
2023-01-12T23:32:21.135Z,21.8
2023-01-12T23:37:27.583Z,21.8
2023-01-12T23:42:50.287Z,21.7
2023-01-12T23:48:11.266Z,21.8
2023-01-12T23:53:33.642Z,21.7
2023-01-12T23:58:55.862Z,21.7
